createdAt,value
2023-01-17T00:00:31.842Z,0.00
2023-01-17T00:01:31.801Z,0.00
2023-01-17T00:02:31.846Z,0.00
2023-01-17T00:03:31.793Z,0.00
2023-01-17T00:04:32.030Z,0.00
2023-01-17T00:05:31.764Z,0.00
2023-01-17T00:06:31.773Z,0.00
2023-01-17T00:07:31.715Z,0.00
2023-01-17T00:08:31.717Z,0.00
2023-01-17T00:09:31.677Z,0.00
2023-01-17T00:10:31.667Z,0.00
2023-01-17T00:11:31.670Z,0.00
2023-01-17T00:12:31.670Z,0.00
2023-01-17T00:13:31.641Z,0.00
2023-01-17T00:14:31.626Z,0.00
2023-01-17T00:15:31.607Z,0.00
2023-01-17T00:16:31.596Z,0.00
2023-01-17T00:17:31.592Z,0.00
2023-01-17T00:18:31.690Z,0.00
2023-01-17T00:19:31.568Z,0.00
2023-01-17T00:20:31.551Z,0.00
2023-01-17T00:21:31.549Z,0.00
2023-01-17T00:22:31.532Z,0.00
2023-01-17T00:23:31.541Z,0.00
2023-01-17T00:24:31.631Z,0.00
2023-01-17T00:25:31.515Z,0.00
2023-01-17T00:26:31.486Z,0.00
2023-01-17T00:27:31.471Z,0.00
2023-01-17T00:28:31.455Z,0.00
2023-01-17T00:29:31.449Z,0.00
2023-01-17T00:30:32.111Z,0.00
2023-01-17T00:31:32.675Z,0.00
2023-01-17T00:32:31.404Z,0.00
2023-01-17T00:33:31.675Z,0.00
2023-01-17T00:34:31.378Z,0.00
2023-01-17T00:35:31.376Z,0.00
2023-01-17T00:36:31.398Z,0.00
2023-01-17T00:37:31.344Z,0.00
2023-01-17T00:38:32.103Z,0.00
2023-01-17T00:39:35.274Z,0.00
2023-01-17T00:40:31.538Z,0.00
2023-01-17T00:41:31.294Z,0.00
2023-01-17T00:42:31.315Z,0.00
2023-01-17T00:43:31.266Z,0.00
2023-01-17T00:44:31.264Z,0.00
2023-01-17T00:45:31.527Z,0.00
2023-01-17T00:46:31.257Z,0.00
2023-01-17T00:47:31.206Z,0.00
2023-01-17T00:48:31.390Z,0.00
2023-01-17T00:49:31.194Z,0.00
2023-01-17T00:50:31.406Z,0.00
2023-01-17T00:51:31.167Z,0.00
2023-01-17T00:52:31.148Z,0.00
2023-01-17T00:53:36.740Z,0.00
2023-01-17T00:54:36.132Z,0.00
2023-01-17T00:55:31.107Z,0.00
2023-01-17T00:56:31.098Z,0.00
2023-01-17T00:57:31.101Z,0.00
2023-01-17T00:58:31.077Z,0.00
2023-01-17T00:59:31.888Z,0.00
2023-01-17T01:00:31.163Z,0.00
2023-01-17T01:01:31.083Z,0.00
2023-01-17T01:02:31.094Z,0.00
2023-01-17T01:03:31.284Z,0.00
2023-01-17T01:04:31.006Z,0.00
2023-01-17T01:05:31.004Z,0.00
2023-01-17T01:06:31.021Z,0.00
2023-01-17T01:07:30.970Z,0.00
2023-01-17T01:08:30.949Z,0.00
2023-01-17T01:09:30.975Z,0.00
2023-01-17T01:10:30.930Z,0.00
2023-01-17T01:11:30.935Z,0.00
2023-01-17T01:12:31.242Z,0.00
2023-01-17T01:13:31.400Z,0.00
2023-01-17T01:14:30.885Z,0.00
2023-01-17T01:15:30.862Z,0.00
2023-01-17T01:16:30.889Z,0.00
2023-01-17T01:17:30.847Z,0.00
2023-01-17T01:18:30.937Z,0.00
2023-01-17T01:19:34.769Z,0.00
2023-01-17T01:20:30.813Z,0.00
2023-01-17T01:21:30.798Z,0.00
2023-01-17T01:22:30.785Z,0.00
2023-01-17T01:23:30.772Z,0.00
2023-01-17T01:24:30.865Z,0.00
2023-01-17T01:25:30.750Z,0.00
2023-01-17T01:26:30.716Z,0.00
2023-01-17T01:27:34.497Z,0.00
2023-01-17T01:28:30.996Z,0.00
2023-01-17T01:29:30.975Z,0.00
2023-01-17T01:30:30.777Z,0.00
2023-01-17T01:31:30.733Z,0.00
2023-01-17T01:32:31.496Z,0.00
2023-01-17T01:33:34.953Z,0.00
2023-01-17T01:34:30.931Z,0.00
2023-01-17T01:35:30.889Z,0.00
2023-01-17T01:36:30.711Z,0.00
2023-01-17T01:37:30.598Z,0.00
2023-01-17T01:38:30.571Z,0.00
2023-01-17T01:39:31.271Z,0.00
2023-01-17T01:40:31.341Z,0.00
2023-01-17T01:41:31.510Z,0.00
2023-01-17T01:42:31.198Z,0.00
2023-01-17T01:43:30.526Z,0.00
2023-01-17T01:44:30.511Z,0.00
2023-01-17T01:45:30.520Z,0.00
2023-01-17T01:46:30.474Z,0.00
2023-01-17T01:47:31.230Z,0.00
2023-01-17T01:48:31.423Z,0.00
2023-01-17T01:49:30.449Z,0.00
2023-01-17T01:50:30.703Z,0.00
2023-01-17T01:51:30.436Z,0.00
2023-01-17T01:52:30.402Z,0.00
2023-01-17T01:53:30.404Z,0.00
2023-01-17T01:54:30.524Z,0.00
2023-01-17T01:55:30.373Z,0.00
2023-01-17T01:56:31.094Z,0.00
2023-01-17T01:57:30.344Z,0.00
2023-01-17T01:58:30.344Z,0.00
2023-01-17T01:59:30.349Z,0.00
2023-01-17T02:00:51.496Z,0.00
2023-01-17T02:01:30.353Z,0.00
2023-01-17T02:02:30.286Z,0.00
2023-01-17T02:03:30.305Z,0.00
2023-01-17T02:04:30.280Z,0.00
2023-01-17T02:05:30.238Z,0.00
2023-01-17T02:06:34.355Z,0.00
2023-01-17T02:07:30.207Z,0.00
2023-01-17T02:08:30.211Z,0.00
2023-01-17T02:09:30.970Z,0.00
2023-01-17T02:10:30.448Z,0.00
2023-01-17T02:11:30.463Z,0.00
2023-01-17T02:12:31.132Z,0.00
2023-01-17T02:13:30.161Z,0.00
2023-01-17T02:14:30.148Z,0.00
2023-01-17T02:15:36.039Z,0.00
2023-01-17T02:16:33.911Z,0.00
2023-01-17T02:17:30.393Z,0.00
2023-01-17T02:18:30.106Z,0.00
2023-01-17T02:19:30.063Z,0.00
2023-01-17T02:20:30.061Z,0.00
2023-01-17T02:21:30.050Z,0.00
2023-01-17T02:22:30.030Z,0.00
2023-01-17T02:23:30.042Z,0.00
2023-01-17T02:24:30.120Z,0.00
2023-01-17T02:25:30.007Z,0.00
2023-01-17T02:26:29.982Z,0.00
2023-01-17T02:27:29.963Z,0.00
2023-01-17T02:28:29.966Z,0.00
2023-01-17T02:29:29.945Z,0.00
2023-01-17T02:30:29.953Z,0.00
2023-01-17T02:31:29.976Z,0.00
2023-01-17T02:32:29.915Z,0.00
2023-01-17T02:33:29.896Z,0.00
2023-01-17T02:34:29.913Z,0.00
2023-01-17T02:35:29.875Z,0.00
2023-01-17T02:36:30.162Z,0.00
2023-01-17T02:37:29.848Z,0.00
2023-01-17T02:38:29.846Z,0.00
2023-01-17T02:39:29.845Z,0.00
2023-01-17T02:40:29.809Z,0.00
2023-01-17T02:41:29.802Z,0.00
2023-01-17T02:42:29.905Z,0.00
2023-01-17T02:43:29.791Z,0.00
2023-01-17T02:44:29.790Z,0.00
2023-01-17T02:45:30.544Z,0.00
2023-01-17T02:46:29.748Z,0.00
2023-01-17T02:47:29.721Z,0.00
2023-01-17T02:48:29.817Z,0.00
2023-01-17T02:49:29.712Z,0.00
2023-01-17T02:50:29.697Z,0.00
2023-01-17T02:51:29.691Z,0.00
2023-01-17T02:52:29.939Z,0.00
2023-01-17T02:53:29.658Z,0.00
2023-01-17T02:54:29.970Z,0.00
2023-01-17T02:55:30.392Z,0.00
2023-01-17T02:56:31.674Z,0.00
2023-01-17T02:57:29.601Z,0.00
2023-01-17T02:58:33.702Z,0.00
2023-01-17T02:59:29.575Z,0.00
2023-01-17T03:00:30.462Z,0.00
2023-01-17T03:01:29.658Z,0.00
2023-01-17T03:02:29.570Z,0.00
2023-01-17T03:03:29.521Z,0.00
2023-01-17T03:04:29.545Z,0.00
2023-01-17T03:05:29.524Z,0.00
2023-01-17T03:06:29.623Z,0.00
2023-01-17T03:07:29.762Z,0.00
2023-01-17T03:08:29.477Z,0.00
2023-01-17T03:09:29.441Z,0.00
2023-01-17T03:10:29.464Z,0.00
2023-01-17T03:11:29.419Z,0.00
2023-01-17T03:12:29.468Z,0.00
2023-01-17T03:13:29.416Z,0.00
2023-01-17T03:14:29.397Z,0.00
2023-01-17T03:15:29.682Z,0.00
2023-01-17T03:16:29.414Z,0.00
2023-01-17T03:17:29.363Z,0.00
2023-01-17T03:18:34.340Z,0.00
2023-01-17T03:19:29.329Z,0.00
2023-01-17T03:20:29.326Z,0.00
2023-01-17T03:21:29.361Z,0.00
2023-01-17T03:22:29.983Z,0.00
2023-01-17T03:23:29.279Z,0.00
2023-01-17T03:24:29.306Z,0.00
2023-01-17T03:25:29.259Z,0.00
2023-01-17T03:26:29.249Z,0.00
2023-01-17T03:27:29.505Z,0.00
2023-01-17T03:28:29.232Z,0.00
2023-01-17T03:29:29.206Z,0.00
2023-01-17T03:30:33.220Z,0.00
2023-01-17T03:31:29.184Z,0.00
2023-01-17T03:32:29.176Z,0.00
2023-01-17T03:33:29.872Z,0.00
2023-01-17T03:34:33.059Z,0.00
2023-01-17T03:35:33.229Z,0.00
2023-01-17T03:36:30.331Z,0.00
2023-01-17T03:37:33.022Z,0.00
2023-01-17T03:38:29.089Z,0.00
2023-01-17T03:39:29.105Z,0.00
2023-01-17T03:40:29.083Z,0.00
2023-01-17T03:41:29.080Z,0.00
2023-01-17T03:42:33.058Z,0.00
2023-01-17T03:43:29.305Z,0.00
2023-01-17T03:44:29.078Z,0.00
2023-01-17T03:45:29.321Z,0.00
2023-01-17T03:46:29.004Z,0.00
2023-01-17T03:47:29.297Z,0.00
2023-01-17T03:48:32.997Z,0.00
2023-01-17T03:49:32.907Z,0.00
2023-01-17T03:50:29.221Z,0.00
2023-01-17T03:51:28.947Z,0.00
2023-01-17T03:52:29.204Z,0.00
2023-01-17T03:53:28.950Z,0.00
2023-01-17T03:54:28.944Z,0.00
2023-01-17T03:55:34.897Z,0.00
2023-01-17T03:56:28.877Z,0.00
2023-01-17T03:57:28.869Z,0.00
2023-01-17T03:58:28.851Z,0.00
2023-01-17T03:59:28.839Z,0.00
2023-01-17T04:00:28.907Z,0.00
2023-01-17T04:01:29.916Z,0.00
2023-01-17T04:02:29.634Z,0.00
2023-01-17T04:03:28.797Z,0.00
2023-01-17T04:04:28.778Z,0.00
2023-01-17T04:05:29.496Z,0.00
2023-01-17T04:06:28.802Z,0.00
2023-01-17T04:07:28.750Z,0.00
2023-01-17T04:08:28.979Z,0.00
2023-01-17T04:09:28.717Z,0.00
2023-01-17T04:10:28.712Z,0.00
2023-01-17T04:11:28.722Z,0.00
2023-01-17T04:12:28.749Z,0.00
2023-01-17T04:13:28.686Z,0.00
2023-01-17T04:14:28.655Z,0.00
2023-01-17T04:15:28.921Z,0.00
2023-01-17T04:16:28.669Z,0.00
2023-01-17T04:17:28.621Z,0.00
2023-01-17T04:18:28.664Z,0.00
2023-01-17T04:19:28.600Z,0.00
2023-01-17T04:20:28.577Z,0.00
2023-01-17T04:21:28.613Z,0.00
2023-01-17T04:22:28.567Z,0.00
2023-01-17T04:23:28.564Z,0.00
2023-01-17T04:24:28.541Z,0.00
2023-01-17T04:25:28.561Z,0.00
2023-01-17T04:26:28.512Z,0.00
2023-01-17T04:27:28.769Z,0.00
2023-01-17T04:28:28.497Z,0.00
2023-01-17T04:29:28.503Z,0.00
2023-01-17T04:30:32.328Z,0.00
2023-01-17T04:31:28.484Z,0.00
2023-01-17T04:32:28.445Z,0.00
2023-01-17T04:33:28.426Z,0.00
2023-01-17T04:34:28.413Z,0.00
2023-01-17T04:35:28.517Z,0.00
2023-01-17T04:36:28.409Z,0.00
2023-01-17T04:37:28.410Z,0.00
2023-01-17T04:38:28.361Z,0.00
2023-01-17T04:39:28.357Z,0.00
2023-01-17T04:40:28.347Z,0.00
2023-01-17T04:41:28.364Z,0.00
2023-01-17T04:42:28.797Z,0.00
2023-01-17T04:43:28.309Z,0.00
2023-01-17T04:44:28.293Z,0.00
2023-01-17T04:45:28.569Z,0.00
2023-01-17T04:46:28.423Z,0.00
2023-01-17T04:47:28.297Z,0.00
2023-01-17T04:48:28.259Z,0.00
2023-01-17T04:49:28.231Z,0.00
2023-01-17T04:50:28.220Z,0.00
2023-01-17T04:51:28.208Z,0.00
2023-01-17T04:52:29.053Z,0.00
2023-01-17T04:53:28.214Z,0.00
2023-01-17T04:54:28.413Z,0.00
2023-01-17T04:55:28.163Z,0.00
2023-01-17T04:56:28.148Z,0.00
2023-01-17T04:57:28.410Z,0.00
2023-01-17T04:58:28.112Z,0.00
2023-01-17T04:59:28.167Z,0.00
2023-01-17T05:00:28.912Z,0.00
2023-01-17T05:01:28.191Z,0.00
2023-01-17T05:02:28.381Z,0.00
2023-01-17T05:03:28.064Z,0.00
2023-01-17T05:04:31.842Z,0.00
2023-01-17T05:05:28.834Z,0.00
2023-01-17T05:06:29.014Z,0.00
2023-01-17T05:07:28.037Z,0.00
2023-01-17T05:08:28.010Z,0.00
2023-01-17T05:09:27.996Z,0.00
2023-01-17T05:10:27.999Z,0.00
2023-01-17T05:11:27.983Z,0.00
2023-01-17T05:12:31.854Z,0.00
2023-01-17T05:13:27.939Z,0.00
2023-01-17T05:14:32.934Z,0.00
2023-01-17T05:15:28.951Z,0.00
2023-01-17T05:16:27.910Z,0.00
2023-01-17T05:17:31.885Z,0.00
2023-01-17T05:18:31.779Z,0.00
2023-01-17T05:19:28.545Z,0.00
2023-01-17T05:20:27.916Z,0.00
2023-01-17T05:21:27.858Z,0.00
2023-01-17T05:22:27.826Z,0.00
2023-01-17T05:23:27.838Z,0.00
2023-01-17T05:24:27.807Z,0.00
2023-01-17T05:25:27.795Z,0.00
2023-01-17T05:26:27.779Z,0.00
2023-01-17T05:27:28.585Z,0.00
2023-01-17T05:28:27.762Z,0.00
2023-01-17T05:29:27.848Z,0.00
2023-01-17T05:30:27.733Z,0.00
2023-01-17T05:31:27.717Z,0.00
2023-01-17T05:32:27.710Z,0.00
2023-01-17T05:33:28.373Z,0.00
2023-01-17T05:34:27.699Z,0.00
2023-01-17T05:35:27.727Z,0.00
2023-01-17T05:36:27.698Z,0.00
2023-01-17T05:37:27.640Z,0.00
2023-01-17T05:38:27.629Z,0.00
2023-01-17T05:39:27.622Z,0.00
2023-01-17T05:40:27.929Z,0.00
2023-01-17T05:41:27.632Z,0.00
2023-01-17T05:42:27.605Z,0.00
2023-01-17T05:43:31.704Z,0.00
2023-01-17T05:44:28.373Z,0.00
2023-01-17T05:45:28.364Z,0.00
2023-01-17T05:46:27.549Z,0.00
2023-01-17T05:47:27.836Z,0.00
2023-01-17T05:48:27.498Z,0.00
2023-01-17T05:49:27.492Z,0.00
2023-01-17T05:50:27.985Z,0.00
2023-01-17T05:51:27.465Z,0.00
2023-01-17T05:52:27.465Z,0.00
2023-01-17T05:53:27.680Z,0.00
2023-01-17T05:54:27.437Z,0.00
2023-01-17T05:55:27.415Z,0.00
2023-01-17T05:56:27.405Z,0.00
2023-01-17T05:57:27.397Z,0.00
2023-01-17T05:58:27.394Z,0.00
2023-01-17T05:59:36.415Z,0.00
2023-01-17T06:00:28.362Z,0.00
2023-01-17T06:01:27.616Z,0.00
2023-01-17T06:02:27.368Z,0.00
2023-01-17T06:03:27.630Z,0.00
2023-01-17T06:04:27.349Z,0.00
2023-01-17T06:05:27.621Z,0.00
2023-01-17T06:06:27.281Z,0.00
2023-01-17T06:07:27.281Z,0.00
2023-01-17T06:08:27.272Z,0.00
2023-01-17T06:09:27.258Z,0.00
2023-01-17T06:10:27.480Z,0.00
2023-01-17T06:11:27.251Z,0.00
2023-01-17T06:12:27.498Z,0.00
2023-01-17T06:13:27.236Z,0.00
2023-01-17T06:14:27.194Z,0.00
2023-01-17T06:15:27.177Z,0.00
2023-01-17T06:16:27.275Z,0.00
2023-01-17T06:17:27.564Z,0.00
2023-01-17T06:18:27.165Z,0.00
2023-01-17T06:19:27.164Z,0.00
2023-01-17T06:20:27.120Z,0.00
2023-01-17T06:21:27.136Z,0.00
2023-01-17T06:22:27.397Z,0.00
2023-01-17T06:23:27.123Z,0.00
2023-01-17T06:24:28.034Z,0.00
2023-01-17T06:25:27.065Z,0.00
2023-01-17T06:26:27.046Z,0.00
2023-01-17T06:27:27.311Z,0.00
2023-01-17T06:28:27.033Z,0.00
2023-01-17T06:29:27.327Z,0.00
2023-01-17T06:30:27.265Z,0.00
2023-01-17T06:31:27.383Z,0.00
2023-01-17T06:32:26.978Z,0.00
2023-01-17T06:33:27.038Z,0.00
2023-01-17T06:34:26.960Z,0.00
2023-01-17T06:35:27.064Z,0.00
2023-01-17T06:36:27.251Z,0.00
2023-01-17T06:37:26.928Z,0.00
2023-01-17T06:38:26.916Z,0.00
2023-01-17T06:39:26.894Z,0.00
2023-01-17T06:40:26.878Z,0.00
2023-01-17T06:41:26.916Z,0.00
2023-01-17T06:42:26.883Z,0.00
2023-01-17T06:43:26.835Z,0.00
2023-01-17T06:44:26.838Z,0.00
2023-01-17T06:45:26.819Z,0.00
2023-01-17T06:46:26.825Z,1.00
2023-01-17T06:47:26.841Z,1.00
2023-01-17T06:48:26.790Z,1.00
2023-01-17T06:49:26.782Z,1.00
2023-01-17T06:50:26.770Z,0.00
2023-01-17T06:51:26.742Z,0.00
2023-01-17T06:52:26.720Z,0.00
2023-01-17T06:53:27.180Z,2.00
2023-01-17T06:54:26.710Z,2.00
2023-01-17T06:55:26.708Z,4.00
2023-01-17T06:56:26.673Z,0.00
2023-01-17T06:57:26.681Z,4.00
2023-01-17T06:58:26.652Z,2.00
2023-01-17T06:59:26.673Z,6.00
2023-01-17T07:00:26.644Z,5.00
2023-01-17T07:01:27.400Z,3.00
2023-01-17T07:02:26.874Z,9.00
2023-01-17T07:03:26.602Z,13.00
2023-01-17T07:04:26.724Z,10.00
2023-01-17T07:05:27.412Z,10.00
2023-01-17T07:06:26.800Z,17.00
2023-01-17T07:07:26.554Z,13.00
2023-01-17T07:08:26.575Z,17.00
2023-01-17T07:09:26.513Z,30.00
2023-01-17T07:10:26.775Z,29.00
2023-01-17T07:11:26.531Z,46.00
2023-01-17T07:12:26.482Z,39.00
2023-01-17T07:13:26.471Z,39.00
2023-01-17T07:14:26.737Z,51.00
2023-01-17T07:15:26.456Z,56.00
2023-01-17T07:16:26.458Z,75.00
2023-01-17T07:17:26.543Z,87.00
2023-01-17T07:18:26.744Z,92.00
2023-01-17T07:19:27.631Z,102.00
2023-01-17T07:20:26.380Z,118.00
2023-01-17T07:21:26.769Z,140.00
2023-01-17T07:22:26.648Z,150.00
2023-01-17T07:23:26.794Z,162.00
2023-01-17T07:24:26.801Z,186.00
2023-01-17T07:25:27.816Z,208.00
2023-01-17T07:26:26.323Z,222.00
2023-01-17T07:27:27.096Z,233.00
2023-01-17T07:28:26.571Z,254.00
2023-01-17T07:29:26.916Z,289.00
2023-01-17T07:30:27.179Z,320.00
2023-01-17T07:31:27.256Z,356.00
2023-01-17T07:32:26.940Z,384.00
2023-01-17T07:33:27.191Z,422.00
2023-01-17T07:34:26.315Z,456.00
2023-01-17T07:35:26.427Z,497.00
2023-01-17T07:36:26.941Z,522.00
2023-01-17T07:37:26.464Z,529.00
2023-01-17T07:38:26.452Z,567.00
2023-01-17T07:39:26.185Z,586.00
2023-01-17T07:40:26.167Z,649.00
2023-01-17T07:41:26.194Z,689.00
2023-01-17T07:42:26.146Z,728.00
2023-01-17T07:43:26.928Z,812.00
2023-01-17T07:44:26.113Z,876.00
2023-01-17T07:45:26.630Z,937.00
2023-01-17T07:46:26.146Z,966.00
2023-01-17T07:47:26.144Z,1002.00
2023-01-17T07:48:26.056Z,1022.00
2023-01-17T07:49:26.335Z,1047.00
2023-01-17T07:50:26.060Z,1022.00
2023-01-17T07:51:26.016Z,1042.00
2023-01-17T07:52:26.000Z,1136.00
2023-01-17T07:53:26.089Z,1217.00
2023-01-17T07:54:26.013Z,1288.00
2023-01-17T07:55:26.394Z,1332.00
2023-01-17T07:56:26.138Z,1392.00
2023-01-17T07:57:25.943Z,1436.00
2023-01-17T07:58:25.935Z,1543.00
2023-01-17T07:59:26.376Z,1662.00
2023-01-17T08:00:26.457Z,1698.00
2023-01-17T08:01:26.172Z,1764.00
2023-01-17T08:02:25.880Z,1802.00
2023-01-17T08:03:26.379Z,1864.00
2023-01-17T08:04:25.866Z,1929.00
2023-01-17T08:05:26.436Z,1978.00
2023-01-17T08:06:26.125Z,2015.00
2023-01-17T08:07:25.809Z,2072.00
2023-01-17T08:08:26.228Z,2112.00
2023-01-17T08:09:26.276Z,2171.00
2023-01-17T08:10:25.864Z,2438.00
2023-01-17T08:11:25.811Z,2321.00
2023-01-17T08:12:25.859Z,2538.00
2023-01-17T08:13:25.798Z,2585.00
2023-01-17T08:14:25.849Z,2485.00
2023-01-17T08:15:25.919Z,2554.00
2023-01-17T08:16:26.689Z,2673.00
2023-01-17T08:17:26.560Z,2678.00
2023-01-17T08:18:28.238Z,2712.00
2023-01-17T08:19:25.714Z,2746.00
2023-01-17T08:20:27.771Z,2730.00
2023-01-17T08:21:25.734Z,2744.00
2023-01-17T08:22:25.672Z,2686.00
2023-01-17T08:23:25.643Z,2788.00
2023-01-17T08:24:25.773Z,2809.00
2023-01-17T08:25:26.428Z,2934.00
2023-01-17T08:26:25.597Z,2966.00
2023-01-17T08:27:25.825Z,3077.00
2023-01-17T08:28:25.567Z,3293.00
2023-01-17T08:29:25.852Z,3107.00
2023-01-17T08:30:25.813Z,3508.00
2023-01-17T08:31:25.598Z,3594.00
2023-01-17T08:32:25.674Z,3736.00
2023-01-17T08:33:25.784Z,3814.00
2023-01-17T08:34:25.624Z,3831.00
2023-01-17T08:35:25.515Z,3876.00
2023-01-17T08:36:25.984Z,3917.00
2023-01-17T08:37:26.277Z,3917.00
2023-01-17T08:38:25.672Z,4044.00
2023-01-17T08:39:25.935Z,3941.00
2023-01-17T08:40:25.404Z,4082.00
2023-01-17T08:41:25.976Z,4077.00
2023-01-17T08:42:27.122Z,4186.00
2023-01-17T08:43:26.087Z,3428.00
2023-01-17T08:44:26.120Z,4258.00
2023-01-17T08:45:25.578Z,4314.00
2023-01-17T08:46:26.287Z,4348.00
2023-01-17T08:47:26.590Z,4433.00
2023-01-17T08:48:26.145Z,4492.00
2023-01-17T08:49:26.114Z,4567.00
2023-01-17T08:50:25.323Z,4582.00
2023-01-17T08:51:25.517Z,4646.00
2023-01-17T08:52:25.537Z,4685.00
2023-01-17T08:53:25.632Z,4704.00
2023-01-17T08:54:25.571Z,4662.00
2023-01-17T08:55:26.187Z,4784.00
2023-01-17T08:56:25.430Z,4851.00
2023-01-17T08:57:25.564Z,4885.00
2023-01-17T08:58:25.209Z,4921.00
2023-01-17T08:59:25.438Z,4927.00
2023-01-17T09:00:25.174Z,4770.00
2023-01-17T09:01:25.311Z,4976.00
2023-01-17T09:02:25.132Z,4896.00
2023-01-17T09:03:25.138Z,4600.00
2023-01-17T09:04:25.785Z,4566.00
2023-01-17T09:05:25.153Z,4430.00
2023-01-17T09:06:25.108Z,4603.00
2023-01-17T09:07:25.465Z,4961.00
2023-01-17T09:08:25.116Z,4872.00
2023-01-17T09:09:25.135Z,5054.00
2023-01-17T09:10:25.094Z,5064.00
2023-01-17T09:11:25.142Z,5381.00
2023-01-17T09:12:25.968Z,5123.00
2023-01-17T09:13:25.874Z,5438.00
2023-01-17T09:14:25.136Z,5405.00
2023-01-17T09:15:25.228Z,5514.00
2023-01-17T09:16:25.014Z,5605.00
2023-01-17T09:17:25.134Z,5692.00
2023-01-17T09:18:24.961Z,5681.00
2023-01-17T09:19:25.126Z,5723.00
2023-01-17T09:20:25.144Z,5677.00
2023-01-17T09:21:25.227Z,5101.00
2023-01-17T09:22:25.121Z,5599.00
2023-01-17T09:23:25.119Z,5824.00
2023-01-17T09:24:24.910Z,5796.00
2023-01-17T09:25:24.961Z,5720.00
2023-01-17T09:26:25.143Z,5808.00
2023-01-17T09:27:25.122Z,5275.00
2023-01-17T09:28:25.124Z,4859.00
2023-01-17T09:29:25.221Z,4112.00
2023-01-17T09:30:24.803Z,4384.00
2023-01-17T09:31:24.831Z,4121.00
2023-01-17T09:32:24.853Z,4137.00
2023-01-17T09:33:24.770Z,5433.00
2023-01-17T09:34:26.497Z,4663.00
2023-01-17T09:35:24.785Z,4495.00
2023-01-17T09:36:24.755Z,4335.00
2023-01-17T09:37:24.713Z,4141.00
2023-01-17T09:38:24.942Z,5346.00
2023-01-17T09:39:24.687Z,4914.00
2023-01-17T09:40:24.768Z,5324.00
2023-01-17T09:41:24.702Z,4904.00
2023-01-17T09:42:24.844Z,4573.00
2023-01-17T09:43:24.649Z,4558.00
2023-01-17T09:44:24.651Z,4525.00
2023-01-17T09:45:24.645Z,4760.00
2023-01-17T09:46:25.568Z,4846.00
2023-01-17T09:47:24.875Z,4816.00
2023-01-17T09:48:24.589Z,4915.00
2023-01-17T09:49:24.565Z,4983.00
2023-01-17T09:50:24.564Z,5019.00
2023-01-17T09:51:24.716Z,4782.00
2023-01-17T09:52:24.560Z,5172.00
2023-01-17T09:53:25.487Z,5846.00
2023-01-17T09:54:24.537Z,5750.00
2023-01-17T09:55:24.625Z,5197.00
2023-01-17T09:56:24.738Z,5673.00
2023-01-17T09:57:24.794Z,5537.00
2023-01-17T09:58:24.630Z,5971.00
2023-01-17T09:59:32.822Z,6042.00
2023-01-17T10:00:25.771Z,6144.00
2023-01-17T10:01:24.561Z,6066.00
2023-01-17T10:02:26.527Z,5550.00
2023-01-17T10:03:24.467Z,5528.00
2023-01-17T10:04:24.427Z,5084.00
2023-01-17T10:05:24.490Z,5117.00
2023-01-17T10:06:25.202Z,5881.00
2023-01-17T10:07:24.631Z,5752.00
2023-01-17T10:08:24.414Z,4650.00
2023-01-17T10:09:24.313Z,5437.00
2023-01-17T10:10:24.481Z,4628.00
2023-01-17T10:11:25.542Z,5690.00
2023-01-17T10:12:24.584Z,6084.00
2023-01-17T10:13:24.272Z,6202.00
2023-01-17T10:14:24.554Z,6148.00
2023-01-17T10:15:24.541Z,6311.00
2023-01-17T10:16:24.310Z,6519.00
2023-01-17T10:17:24.416Z,6541.00
2023-01-17T10:18:29.870Z,6431.00
2023-01-17T10:19:25.679Z,6374.00
2023-01-17T10:20:28.148Z,5803.00
2023-01-17T10:21:24.183Z,6454.00
2023-01-17T10:22:24.414Z,6588.00
2023-01-17T10:23:24.998Z,6379.00
2023-01-17T10:24:24.149Z,6658.00
2023-01-17T10:25:24.886Z,6702.00
2023-01-17T10:26:24.104Z,6737.00
2023-01-17T10:27:24.095Z,6249.00
2023-01-17T10:28:24.096Z,6714.00
2023-01-17T10:29:24.254Z,6311.00
2023-01-17T10:30:24.478Z,6322.00
2023-01-17T10:31:24.546Z,6615.00
2023-01-17T10:32:24.374Z,6591.00
2023-01-17T10:33:24.354Z,6773.00
2023-01-17T10:34:24.032Z,6926.00
2023-01-17T10:35:24.039Z,6255.00
2023-01-17T10:36:23.988Z,6219.00
2023-01-17T10:37:24.297Z,5641.00
2023-01-17T10:38:24.168Z,6261.00
2023-01-17T10:39:23.987Z,6803.00
2023-01-17T10:40:23.979Z,7223.00
2023-01-17T10:41:23.962Z,6611.00
2023-01-17T10:42:23.918Z,6242.00
2023-01-17T10:43:27.988Z,5996.00
2023-01-17T10:44:24.035Z,5839.00
2023-01-17T10:45:24.258Z,6812.00
2023-01-17T10:46:24.115Z,6215.00
2023-01-17T10:47:24.046Z,5971.00
2023-01-17T10:48:24.080Z,5344.00
2023-01-17T10:49:24.097Z,5391.00
2023-01-17T10:50:23.901Z,5712.00
2023-01-17T10:51:23.812Z,6049.00
2023-01-17T10:52:23.847Z,6169.00
2023-01-17T10:53:27.772Z,6024.00
2023-01-17T10:54:24.059Z,6287.00
2023-01-17T10:55:23.941Z,6864.00
2023-01-17T10:56:24.204Z,6803.00
2023-01-17T10:57:23.743Z,7079.00
2023-01-17T10:58:23.743Z,6988.00
2023-01-17T10:59:24.235Z,6712.00
2023-01-17T11:00:24.671Z,6074.00
2023-01-17T11:01:23.795Z,5840.00
2023-01-17T11:02:23.798Z,5889.00
2023-01-17T11:03:23.680Z,6240.00
2023-01-17T11:04:23.754Z,6172.00
2023-01-17T11:05:23.659Z,6222.00
2023-01-17T11:06:23.891Z,6207.00
2023-01-17T11:07:23.839Z,6316.00
2023-01-17T11:08:23.734Z,6490.00
2023-01-17T11:09:23.576Z,6491.00
2023-01-17T11:10:23.727Z,6524.00
2023-01-17T11:11:27.841Z,6008.00
2023-01-17T11:12:23.579Z,5699.00
2023-01-17T11:13:24.987Z,6286.00
2023-01-17T11:14:24.135Z,6337.00
2023-01-17T11:15:27.532Z,5971.00
2023-01-17T11:16:24.458Z,5727.00
2023-01-17T11:17:24.238Z,5642.00
2023-01-17T11:18:23.875Z,5623.00
2023-01-17T11:19:23.469Z,6107.00
2023-01-17T11:20:23.645Z,6743.00
2023-01-17T11:21:27.650Z,6715.00
2023-01-17T11:22:23.720Z,6148.00
2023-01-17T11:23:23.852Z,5828.00
2023-01-17T11:24:23.958Z,5478.00
2023-01-17T11:25:23.390Z,5407.00
2023-01-17T11:26:23.909Z,5498.00
2023-01-17T11:27:24.213Z,5689.00
2023-01-17T11:28:24.164Z,5819.00
2023-01-17T11:29:23.330Z,5957.00
2023-01-17T11:30:23.335Z,5953.00
2023-01-17T11:31:23.620Z,6112.00
2023-01-17T11:32:24.080Z,5905.00
2023-01-17T11:33:23.393Z,6018.00
2023-01-17T11:34:23.303Z,6019.00
2023-01-17T11:35:23.385Z,5987.00
2023-01-17T11:36:24.483Z,5955.00
2023-01-17T11:37:24.446Z,5955.00
2023-01-17T11:38:23.222Z,6025.00
2023-01-17T11:39:23.908Z,6079.00
2023-01-17T11:40:28.133Z,6061.00
2023-01-17T11:41:27.523Z,6062.00
2023-01-17T11:42:23.191Z,6228.00
2023-01-17T11:43:24.113Z,6169.00
2023-01-17T11:44:23.939Z,6278.00
2023-01-17T11:45:23.887Z,6354.00
2023-01-17T11:46:23.902Z,6364.00
2023-01-17T11:47:23.104Z,6283.00
2023-01-17T11:48:23.374Z,5946.00
2023-01-17T11:49:23.928Z,5892.00
2023-01-17T11:50:23.085Z,5868.00
2023-01-17T11:51:23.086Z,5898.00
2023-01-17T11:52:23.107Z,5965.00
2023-01-17T11:53:23.341Z,6101.00
2023-01-17T11:54:24.883Z,6298.00
2023-01-17T11:55:30.660Z,6531.00
2023-01-17T11:56:23.005Z,6660.00
2023-01-17T11:57:23.177Z,6979.00
2023-01-17T11:58:22.968Z,7270.00
2023-01-17T11:59:22.958Z,7559.00
2023-01-17T12:00:22.981Z,7847.00
2023-01-17T12:01:22.982Z,7626.00
2023-01-17T12:02:22.984Z,7128.00
2023-01-17T12:03:23.053Z,7017.00
2023-01-17T12:04:23.926Z,6958.00
2023-01-17T12:05:23.000Z,6799.00
2023-01-17T12:06:22.878Z,6838.00
2023-01-17T12:07:22.859Z,6712.00
2023-01-17T12:08:22.958Z,6680.00
2023-01-17T12:09:23.015Z,6594.00
2023-01-17T12:10:23.583Z,6621.00
2023-01-17T12:11:22.813Z,6646.00
2023-01-17T12:12:26.859Z,6732.00
2023-01-17T12:13:23.073Z,6845.00
2023-01-17T12:14:22.788Z,6782.00
2023-01-17T12:15:22.879Z,6709.00
2023-01-17T12:16:23.021Z,6729.00
2023-01-17T12:17:22.993Z,6672.00
2023-01-17T12:18:22.732Z,6837.00
2023-01-17T12:19:27.202Z,6835.00
2023-01-17T12:20:22.768Z,6503.00
2023-01-17T12:21:22.990Z,6354.00
2023-01-17T12:22:23.420Z,6278.00
2023-01-17T12:23:22.998Z,6201.00
2023-01-17T12:24:22.663Z,6205.00
2023-01-17T12:25:23.601Z,6242.00
2023-01-17T12:26:23.451Z,6196.00
2023-01-17T12:27:22.710Z,6332.00
2023-01-17T12:28:22.977Z,6157.00
2023-01-17T12:29:22.869Z,6081.00
2023-01-17T12:30:23.364Z,6023.00
2023-01-17T12:31:22.588Z,5984.00
2023-01-17T12:32:23.740Z,6145.00
2023-01-17T12:33:22.974Z,6025.00
2023-01-17T12:34:22.820Z,6152.00
2023-01-17T12:35:23.008Z,6173.00
2023-01-17T12:36:22.617Z,6266.00
2023-01-17T12:37:22.489Z,6442.00
2023-01-17T12:38:32.212Z,7010.00
2023-01-17T12:39:23.501Z,7077.00
2023-01-17T12:40:22.975Z,6863.00
2023-01-17T12:41:23.430Z,6342.00
2023-01-17T12:42:22.994Z,6188.00
2023-01-17T12:43:22.433Z,5466.00
2023-01-17T12:44:22.714Z,5066.00
2023-01-17T12:45:22.481Z,5213.00
2023-01-17T12:46:22.732Z,4875.00